Time;durP1;ratioP1;P1;durP2;ratioP2;P2;SDS_P1;SDS_P2;PMS_P1;PMS_P2;Temp;Humidity;BMP_temperature;BMP_pressure;BME280_temperature;BME280_humidity;BME280_pressure;Samples;Min_cycle;Max_cycle;Signal;HPM_P1;HPM_P2
2022/08/23 00:02:08;;;;;;;4.90;3.93;;;14.70;81.30;;;;;;4993148;28;20486;-65
2022/08/23 00:04:39;;;;;;;5.43;4.87;;;14.70;81.40;;;;;;5002319;28;20440;-65
2022/08/23 00:07:11;;;;;;;12.00;4.73;;;14.70;81.20;;;;;;5012878;28;20497;-65
2022/08/23 00:09:38;;;;;;;5.33;4.83;;;14.60;81.30;;;;;;5002812;28;20475;-67
2022/08/23 00:12:13;;;;;;;6.03;4.50;;;14.60;81.60;;;;;;4992690;28;20440;-65
2022/08/23 00:14:44;;;;;;;6.30;4.23;;;14.50;81.60;;;;;;5001624;28;20508;-65
2022/08/23 00:17:12;;;;;;;5.20;4.70;;;14.50;82.00;;;;;;5012717;28;20545;-65
2022/08/23 00:19:40;;;;;;;5.33;4.30;;;14.40;81.80;;;;;;5002964;28;20439;-65
2022/08/23 00:22:09;;;;;;;6.40;5.20;;;14.40;82.00;;;;;;4992955;28;20483;-66
2022/08/23 00:24:37;;;;;;;6.60;4.47;;;14.40;82.50;;;;;;5010883;28;20469;-65
2022/08/23 00:27:07;;;;;;;7.90;5.73;;;14.40;82.30;;;;;;5012452;28;20777;-65
2022/08/23 00:29:39;;;;;;;5.90;4.73;;;14.40;82.40;;;;;;5001058;28;20447;-65
2022/08/23 00:32:10;;;;;;;6.20;5.20;;;14.40;81.80;;;;;;5012806;28;20455;-65
2022/08/23 00:34:38;;;;;;;7.23;5.20;;;14.30;82.00;;;;;;4993808;28;20775;-65
2022/08/23 00:37:06;;;;;;;7.00;4.60;;;14.30;82.20;;;;;;4992762;28;20440;-65
2022/08/23 00:39:35;;;;;;;5.67;5.00;;;14.30;82.40;;;;;;5007204;28;20582;-65
2022/08/23 00:47:39;;;;;;;4.53;3.90;;;14.30;83.10;;;;;;4992803;28;20930;-67
2022/08/23 00:50:23;;;;;;;4.23;3.83;;;14.30;82.90;;;;;;4985385;28;20447;-65
2022/08/23 00:52:59;;;;;;;6.30;3.77;;;14.20;83.20;;;;;;5010761;28;20442;-64
2022/08/23 00:55:29;;;;;;;4.77;3.80;;;14.20;83.30;;;;;;4992684;28;20439;-65
2022/08/23 00:57:57;;;;;;;3.60;3.13;;;14.10;83.30;;;;;;4995560;28;20446;-65
2022/08/23 01:00:26;;;;;;;4.07;3.67;;;14.10;83.30;;;;;;5009450;28;20522;-65
2022/08/23 01:02:54;;;;;;;4.70;3.80;;;14.10;82.80;;;;;;4996061;28;20514;-71
2022/08/23 01:05:25;;;;;;;4.30;3.40;;;14.10;82.60;;;;;;4976854;28;20447;-65
2022/08/23 01:07:55;;;;;;;4.70;3.80;;;14.00;81.90;;;;;;4976765;28;20444;-65
2022/08/23 01:10:27;;;;;;;5.60;4.00;;;13.80;82.60;;;;;;5015246;28;20439;-65
2022/08/23 01:13:02;;;;;;;5.30;4.00;;;13.70;81.60;;;;;;5015466;28;20442;-65
2022/08/23 01:15:34;;;;;;;7.20;4.70;;;13.60;82.60;;;;;;4976759;28;20468;-65
2022/08/23 01:18:05;;;;;;;5.30;4.07;;;13.40;82.70;;;;;;4991008;28;20442;-67
2022/08/23 01:20:38;;;;;;;5.40;4.00;;;13.30;83.10;;;;;;4976749;28;20479;-64
2022/08/23 01:23:10;;;;;;;5.75;4.30;;;13.20;84.00;;;;;;5003168;28;20273;-65
2022/08/23 01:25:39;;;;;;;6.38;4.30;;;13.20;84.30;;;;;;5015751;28;20549;-64
2022/08/23 01:28:06;;;;;;;5.88;3.85;;;13.10;84.10;;;;;;5001733;28;20195;-65
2022/08/23 01:30:37;;;;;;;8.63;5.30;;;13.10;84.30;;;;;;4996172;28;20243;-65
2022/08/23 01:33:07;;;;;;;6.47;4.27;;;13.00;85.30;;;;;;5007536;28;20234;-65
2022/08/23 01:35:38;;;;;;;5.97;3.77;;;12.90;85.60;;;;;;5015412;28;20995;-65
2022/08/23 01:38:06;;;;;;;7.00;3.45;;;12.90;85.80;;;;;;5003623;28;20482;-64
2022/08/23 01:40:34;;;;;;;5.57;4.30;;;13.00;86.40;;;;;;5009561;28;20207;-66
2022/08/23 01:43:02;;;;;;;4.43;4.00;;;13.00;86.80;;;;;;5004701;28;20836;-65
2022/08/23 01:45:30;;;;;;;4.32;3.92;;;13.10;87.30;;;;;;4995492;28;20197;-65
2022/08/23 01:47:58;;;;;;;4.32;3.92;;;13.10;87.30;;;;;;4995031;28;20193;-65
2022/08/23 01:50:26;;;;;;;4.37;3.80;;;13.10;87.00;;;;;;4994998;28;20192;-65
2022/08/23 01:52:54;;;;;;;5.40;3.72;;;13.10;87.40;;;;;;4994936;28;20530;-65
2022/08/23 01:55:21;;;;;;;4.03;3.57;;;13.10;87.70;;;;;;4995340;28;20922;-65
2022/08/23 01:57:52;;;;;;;4.50;4.10;;;13.10;88.10;;;;;;4994816;28;20806;-65
2022/08/23 02:00:22;;;;;;;4.40;4.00;;;13.20;87.90;;;;;;4994461;28;20428;-66
2022/08/23 02:02:51;;;;;;;8.45;4.45;;;13.20;88.30;;;;;;4994681;28;20227;-65
2022/08/23 02:05:19;;;;;;;5.93;3.90;;;13.30;88.30;;;;;;4994906;28;20262;-65
2022/08/23 02:07:47;;;;;;;5.43;4.20;;;13.30;87.90;;;;;;4994508;28;20318;-65
2022/08/23 02:10:14;;;;;;;7.20;3.53;;;13.30;87.80;;;;;;4993736;28;20523;-65
2022/08/23 02:12:41;;;;;;;5.83;4.87;;;13.30;86.20;;;;;;4995137;28;20791;-65
2022/08/23 02:15:09;;;;;;;6.17;5.10;;;13.20;85.90;;;;;;4994505;28;20455;-65
2022/08/23 02:17:38;;;;;;;10.02;5.85;;;13.00;86.70;;;;;;4995109;28;20466;-65
2022/08/23 02:20:07;;;;;;;7.53;5.05;;;13.00;87.10;;;;;;4995891;28;20258;-65
2022/08/23 02:22:36;;;;;;;7.43;5.55;;;12.90;87.80;;;;;;5014324;28;20630;-65
2022/08/23 02:25:04;;;;;;;6.50;5.60;;;12.80;87.60;;;;;;5013091;28;20230;-65
2022/08/23 02:27:31;;;;;;;5.40;4.75;;;12.70;87.70;;;;;;4994761;28;20247;-65
2022/08/23 02:29:58;;;;;;;6.45;5.47;;;12.70;88.70;;;;;;4994631;28;20200;-65
2022/08/23 02:32:25;;;;;;;5.63;4.80;;;12.70;87.80;;;;;;4991941;28;20200;-65
2022/08/23 02:34:56;;;;;;;9.40;6.97;;;12.70;87.70;;;;;;4994542;28;20192;-64
2022/08/23 02:37:24;;;;;;;12.52;8.80;;;12.70;87.80;;;;;;5012094;28;20194;-65
2022/08/23 02:39:51;;;;;;;7.00;5.80;;;12.80;87.80;;;;;;5014074;28;20250;-64
2022/08/23 02:42:18;;;;;;;5.27;4.63;;;12.80;87.90;;;;;;4996484;28;20189;-65
2022/08/23 02:44:45;;;;;;;4.80;4.40;;;12.70;88.30;;;;;;5013721;28;20439;-65
2022/08/23 02:47:13;;;;;;;5.53;5.03;;;12.60;89.80;;;;;;5012687;28;20183;-65
2022/08/23 02:49:40;;;;;;;5.10;4.20;;;12.50;89.70;;;;;;5014044;28;20196;-65
2022/08/23 02:52:09;;;;;;;5.10;4.38;;;12.40;89.90;;;;;;5011972;28;20267;-65
2022/08/23 02:54:36;;;;;;;5.20;4.70;;;12.40;90.00;;;;;;5013949;28;20196;-65
2022/08/23 02:57:04;;;;;;;7.10;4.57;;;12.30;90.20;;;;;;4999500;28;20200;-65
2022/08/23 02:59:31;;;;;;;6.75;4.43;;;12.20;90.40;;;;;;4993970;28;20709;-65
2022/08/23 03:01:58;;;;;;;4.30;3.90;;;12.20;90.20;;;;;;5006132;28;20590;-65
2022/08/23 03:04:26;;;;;;;5.50;4.45;;;12.20;90.70;;;;;;5013346;28;20212;-64
2022/08/23 03:06:53;;;;;;;4.90;3.65;;;12.30;90.40;;;;;;5002315;28;20251;-65
2022/08/23 03:09:25;;;;;;;4.50;3.70;;;12.40;90.20;;;;;;4993868;28;20193;-65
2022/08/23 03:11:52;;;;;;;4.93;3.72;;;12.40;90.30;;;;;;5003620;28;20176;-65
2022/08/23 03:14:20;;;;;;;6.78;4.15;;;12.50;90.30;;;;;;5013482;28;20188;-65
2022/08/23 03:16:47;;;;;;;4.22;3.80;;;12.50;89.50;;;;;;5004208;28;20196;-65
2022/08/23 03:19:14;;;;;;;5.32;4.30;;;12.40;88.20;;;;;;4993625;28;20193;-65
2022/08/23 03:21:41;;;;;;;4.60;4.20;;;12.40;88.40;;;;;;4994674;28;20196;-65
2022/08/23 03:24:10;;;;;;;5.00;4.15;;;12.40;89.10;;;;;;4993616;28;20618;-65
2022/08/23 03:26:41;;;;;;;4.40;4.00;;;12.40;89.10;;;;;;4999334;28;20188;-65
2022/08/23 03:29:11;;;;;;;5.05;3.60;;;12.40;88.90;;;;;;5013173;28;20191;-66
2022/08/23 03:31:38;;;;;;;5.65;3.75;;;12.40;88.40;;;;;;5007173;28;20647;-64
2022/08/23 03:34:06;;;;;;;6.80;4.35;;;12.30;89.50;;;;;;4993893;28;20532;-65
2022/08/23 03:36:34;;;;;;;7.57;5.65;;;12.30;88.30;;;;;;4997184;28;20184;-65
2022/08/23 03:39:01;;;;;;;5.75;4.70;;;12.20;88.70;;;;;;5013144;28;20242;-65
2022/08/23 03:41:28;;;;;;;9.02;5.82;;;12.10;89.10;;;;;;5011065;28;20646;-64
2022/08/23 03:43:57;;;;;;;4.95;3.45;;;12.10;89.70;;;;;;5012553;28;20216;-65
2022/08/23 03:46:24;;;;;;;5.35;4.47;;;12.10;89.90;;;;;;5009838;28;20195;-65
2022/08/23 03:48:53;;;;;;;4.60;3.28;;;12.00;89.20;;;;;;4993365;28;20610;-65
2022/08/23 03:51:22;;;;;;;6.30;3.88;;;11.90;89.50;;;;;;4994282;28;20184;-64
2022/08/23 03:53:50;;;;;;;4.47;3.40;;;11.90;89.90;;;;;;4993353;28;20227;-65
2022/08/23 03:56:25;;;;;;;5.03;4.43;;;11.90;90.20;;;;;;5006986;28;20269;-65
2022/08/23 03:58:52;;;;;;;5.50;4.82;;;12.00;90.30;;;;;;5012648;28;20698;-65
2022/08/23 04:01:21;;;;;;;7.55;6.28;;;12.00;90.60;;;;;;5002167;28;20560;-64
2022/08/23 04:03:48;;;;;;;4.80;4.30;;;12.00;90.90;;;;;;5012810;28;20219;-65
2022/08/23 04:06:17;;;;;;;7.50;5.10;;;12.00;90.90;;;;;;4999595;28;20199;-65
2022/08/23 04:08:45;;;;;;;4.55;4.03;;;11.90;90.60;;;;;;4993264;28;20644;-65
2022/08/23 04:11:13;;;;;;;6.60;4.03;;;11.90;90.60;;;;;;4992332;28;20268;-65
2022/08/23 04:13:45;;;;;;;4.60;3.78;;;12.00;90.50;;;;;;4993200;28;20307;-65
2022/08/23 04:16:12;;;;;;;9.32;4.82;;;12.00;90.70;;;;;;4992511;28;20188;-65
2022/08/23 04:18:41;;;;;;;7.22;5.03;;;12.00;90.90;;;;;;4993004;28;20283;-65
2022/08/23 04:21:12;;;;;;;5.80;5.05;;;12.00;91.00;;;;;;4992457;28;20651;-65
2022/08/23 04:23:42;;;;;;;5.53;4.10;;;12.00;90.70;;;;;;4992653;28;20246;-64
2022/08/23 04:26:09;;;;;;;4.40;3.90;;;12.00;90.60;;;;;;4992830;28;20604;-65
2022/08/23 04:28:37;;;;;;;4.18;3.63;;;12.10;90.70;;;;;;4992939;28;20215;-65
2022/08/23 04:31:05;;;;;;;4.13;3.60;;;12.10;90.70;;;;;;4993579;28;20200;-64
2022/08/23 04:33:33;;;;;;;4.13;3.72;;;12.10;90.50;;;;;;4996631;28;20243;-65
2022/08/23 04:36:02;;;;;;;6.18;4.13;;;12.10;90.10;;;;;;5003316;28;20599;-64
2022/08/23 04:38:30;;;;;;;4.43;3.60;;;12.10;90.00;;;;;;5012670;28;20189;-65
2022/08/23 04:43:43;;;;;;;4.80;3.50;;;12.10;90.20;;;;;;4995877;28;20359;-65
2022/08/23 04:46:10;;;;;;;3.72;3.00;;;12.00;90.10;;;;;;4996484;28;20184;-65
2022/08/23 04:48:37;;;;;;;5.40;4.13;;;12.00;90.10;;;;;;4995498;28;20253;-67
2022/08/23 04:51:05;;;;;;;6.78;4.57;;;12.00;90.00;;;;;;4997022;28;20247;-65
2022/08/23 04:53:34;;;;;;;8.20;5.47;;;11.80;90.30;;;;;;4995852;28;20272;-64
2022/08/23 04:56:01;;;;;;;5.80;5.18;;;11.70;90.60;;;;;;4997285;28;20192;-66
2022/08/23 04:58:28;;;;;;;6.90;5.10;;;11.70;91.00;;;;;;4995961;28;20242;-64
2022/08/23 05:00:55;;;;;;;7.05;5.07;;;11.70;91.30;;;;;;4997058;28;20195;-64
2022/08/23 05:03:22;;;;;;;8.15;4.60;;;11.70;91.30;;;;;;5005060;28;20254;-65
2022/08/23 05:05:49;;;;;;;4.65;4.07;;;11.70;91.20;;;;;;5016830;28;20216;-65
2022/08/23 05:08:17;;;;;;;3.88;3.40;;;11.70;91.10;;;;;;5006587;28;20188;-65
2022/08/23 05:10:45;;;;;;;5.43;4.00;;;11.70;91.30;;;;;;4996962;28;20220;-65
2022/08/23 05:13:12;;;;;;;6.03;4.07;;;11.70;91.40;;;;;;4995685;28;20228;-64
2022/08/23 05:15:39;;;;;;;6.07;4.60;;;11.80;91.20;;;;;;4996756;28;20224;-65
2022/08/23 05:18:06;;;;;;;5.10;4.60;;;11.80;91.50;;;;;;5001871;28;20183;-65
2022/08/23 05:20:34;;;;;;;5.18;4.40;;;11.80;91.80;;;;;;5008457;28;20196;-64
2022/08/23 05:23:01;;;;;;;4.93;4.43;;;11.90;92.30;;;;;;4994341;28;20267;-67
2022/08/23 05:28:11;;;;;;;4.65;3.78;;;12.10;92.70;;;;;;4993483;28;20331;-70
2022/08/23 05:30:38;;;;;;;6.63;4.97;;;12.20;92.40;;;;;;4993362;28;20631;-66
2022/08/23 05:33:05;;;;;;;11.52;5.05;;;12.30;92.70;;;;;;4991429;28;20244;-65
2022/08/23 05:35:32;;;;;;;5.03;4.18;;;12.30;92.90;;;;;;4994221;28;20232;-67
2022/08/23 05:38:00;;;;;;;7.70;5.97;;;12.40;93.00;;;;;;4993768;28;20220;-66
2022/08/23 05:40:27;;;;;;;5.20;4.60;;;12.50;93.10;;;;;;4994826;28;20199;-64
2022/08/23 05:42:55;;;;;;;7.72;4.88;;;12.60;92.80;;;;;;4993855;28;20275;-65
2022/08/23 05:45:22;;;;;;;6.93;4.72;;;12.70;92.90;;;;;;4990191;28;20224;-65
2022/08/23 05:47:49;;;;;;;4.67;4.17;;;12.80;93.10;;;;;;4993798;28;20239;-65
2022/08/23 05:50:16;;;;;;;9.43;4.82;;;13.00;93.30;;;;;;4994446;28;20935;-65
2022/08/23 05:52:43;;;;;;;5.30;4.67;;;13.20;93.80;;;;;;4997342;28;20272;-65
2022/08/23 05:55:10;;;;;;;5.37;4.43;;;13.30;93.70;;;;;;4994533;28;20530;-65
2022/08/23 05:57:37;;;;;;;6.05;4.70;;;13.40;93.50;;;;;;4992843;28;20439;-65
2022/08/23 06:00:12;;;;;;;10.68;5.55;;;13.60;93.80;;;;;;4994535;28;20184;-65
2022/08/23 06:02:39;;;;;;;6.47;5.00;;;13.70;92.80;;;;;;4993249;28;20278;-65
2022/08/23 06:05:14;;;;;;;7.37;5.10;;;13.80;92.30;;;;;;4993746;28;20511;-65
2022/08/23 06:07:41;;;;;;;5.87;4.57;;;13.80;92.20;;;;;;4993688;28;20455;-66
2022/08/23 06:10:09;;;;;;;6.70;4.07;;;14.00;92.90;;;;;;4994274;28;20839;-65
2022/08/23 06:12:36;;;;;;;6.60;4.23;;;14.10;93.00;;;;;;4996929;28;20534;-65
2022/08/23 06:15:08;;;;;;;7.10;4.17;;;14.30;93.20;;;;;;4994231;28;20791;-65
2022/08/23 06:17:40;;;;;;;4.87;4.47;;;14.40;93.10;;;;;;4993774;28;20439;-65
2022/08/23 06:20:08;;;;;;;4.70;3.80;;;14.50;92.90;;;;;;4994058;28;20444;-65
2022/08/23 06:22:35;;;;;;;4.90;4.00;;;14.70;93.20;;;;;;4993183;28;20432;-65
2022/08/23 06:25:02;;;;;;;4.13;3.73;;;14.90;93.70;;;;;;4992112;28;20503;-71
2022/08/23 06:27:29;;;;;;;5.43;3.57;;;15.10;93.60;;;;;;4926697;28;20750;-68
2022/08/23 06:29:56;;;;;;;5.33;3.57;;;15.20;93.20;;;;;;4927056;28;20444;-71
2022/08/23 06:32:24;;;;;;;4.43;3.90;;;15.40;92.10;;;;;;4935892;28;20776;-67
2022/08/23 06:34:52;;;;;;;6.13;4.77;;;15.50;92.40;;;;;;4961094;28;20459;-65
2022/08/23 06:37:20;;;;;;;4.83;4.33;;;15.70;92.80;;;;;;4952284;28;20849;-70
2022/08/23 06:39:48;;;;;;;8.53;4.73;;;15.80;92.90;;;;;;4908217;28;20749;-71
2022/08/23 06:42:16;;;;;;;4.23;3.83;;;16.00;93.20;;;;;;4896135;28;20448;-71
2022/08/23 06:44:43;;;;;;;7.37;4.17;;;16.10;92.00;;;;;;4913860;28;20594;-66
2022/08/23 06:47:11;;;;;;;5.10;3.77;;;16.30;92.30;;;;;;4903725;28;20942;-70
2022/08/23 06:49:39;;;;;;;6.90;4.53;;;16.50;92.30;;;;;;4867549;28;21569;-70
2022/08/23 06:52:06;;;;;;;5.60;3.67;;;16.70;92.30;;;;;;4956259;28;20448;-65
2022/08/23 06:54:36;;;;;;;5.57;3.83;;;16.90;92.10;;;;;;4983299;28;21534;-65
2022/08/23 06:57:04;;;;;;;5.10;3.90;;;17.10;91.90;;;;;;4988430;28;20529;-64
2022/08/23 06:59:31;;;;;;;9.53;4.57;;;17.20;91.80;;;;;;4993443;28;20443;-65
2022/08/23 07:02:04;;;;;;;7.07;4.10;;;17.40;91.70;;;;;;4993584;28;20963;-69
2022/08/23 07:04:33;;;;;;;12.00;4.33;;;17.50;91.00;;;;;;4974650;28;20532;-65
2022/08/23 07:07:02;;;;;;;5.53;4.40;;;17.70;90.80;;;;;;4975108;28;20491;-64
2022/08/23 07:09:30;;;;;;;4.50;3.83;;;17.80;90.20;;;;;;4975133;28;20968;-64
2022/08/23 07:11:57;;;;;;;6.80;4.60;;;18.00;89.40;;;;;;4977649;28;20472;-66
2022/08/23 07:14:25;;;;;;;6.73;3.10;;;18.20;88.50;;;;;;4994397;28;20494;-65
2022/08/23 07:16:53;;;;;;;19.33;4.47;;;18.30;87.50;;;;;;4994676;28;20879;-65
2022/08/23 07:19:23;;;;;;;5.83;3.80;;;18.50;87.50;;;;;;4994485;28;20530;-65
2022/08/23 07:21:50;;;;;;;4.73;3.03;;;18.70;87.20;;;;;;4994326;28;20950;-66
2022/08/23 07:24:19;;;;;;;7.00;3.60;;;18.90;84.50;;;;;;4993579;28;20918;-65
2022/08/23 07:26:47;;;;;;;6.83;3.70;;;19.00;85.00;;;;;;4994432;28;20476;-66
2022/08/23 07:29:14;;;;;;;6.93;3.30;;;19.10;84.90;;;;;;4994254;28;20471;-65
2022/08/23 07:31:44;;;;;;;8.10;3.87;;;19.30;84.60;;;;;;4994375;28;20441;-65
2022/08/23 07:34:11;;;;;;;7.00;3.67;;;19.50;83.60;;;;;;4994269;28;20455;-65
2022/08/23 07:36:41;;;;;;;4.00;3.20;;;19.70;83.00;;;;;;4993870;28;20542;-66
2022/08/23 07:39:09;;;;;;;11.57;3.90;;;19.80;80.80;;;;;;4993984;28;20863;-65
2022/08/23 07:41:38;;;;;;;11.40;3.17;;;20.00;83.90;;;;;;4993906;28;20506;-65
2022/08/23 07:44:08;;;;;;;5.03;3.50;;;20.40;83.50;;;;;;4994217;28;20449;-65
2022/08/23 07:46:36;;;;;;;4.53;2.93;;;20.80;81.40;;;;;;4993939;28;20460;-65
2022/08/23 07:49:04;;;;;;;4.67;2.90;;;21.10;82.00;;;;;;4993762;28;20920;-65
2022/08/23 07:51:34;;;;;;;4.60;2.50;;;21.50;79.30;;;;;;4993987;28;20485;-65
2022/08/23 07:54:02;;;;;;;4.87;2.83;;;21.90;74.50;;;;;;4993731;28;20447;-65
2022/08/23 07:56:29;;;;;;;6.97;3.00;;;22.20;78.70;;;;;;4993558;28;20513;-65
2022/08/23 07:58:58;;;;;;;4.53;3.37;;;22.60;76.30;;;;;;4993836;28;20486;-65
2022/08/23 08:01:27;;;;;;;3.80;2.80;;;23.10;73.50;;;;;;4993873;28;20503;-65
2022/08/23 08:03:56;;;;;;;5.10;2.40;;;23.40;72.40;;;;;;4993487;28;20502;-65
2022/08/23 08:06:25;;;;;;;4.17;2.70;;;23.80;73.70;;;;;;4992818;28;20531;-65
2022/08/23 08:08:52;;;;;;;5.53;3.23;;;24.10;64.90;;;;;;4993297;28;20448;-65
2022/08/23 08:11:23;;;;;;;5.37;2.87;;;24.40;66.70;;;;;;4990796;28;20862;-65
2022/08/23 08:13:51;;;;;;;5.53;2.90;;;24.80;62.60;;;;;;4993316;28;20446;-66
2022/08/23 08:16:25;;;;;;;4.97;3.07;;;25.30;63.00;;;;;;4993609;28;20444;-64
2022/08/23 08:18:52;;;;;;;5.93;2.93;;;25.70;59.60;;;;;;4993405;28;20454;-64
2022/08/23 08:21:19;;;;;;;4.70;2.30;;;26.20;60.80;;;;;;4993442;28;20444;-65
2022/08/23 08:23:46;;;;;;;5.53;2.60;;;26.60;60.90;;;;;;4993237;28;20538;-65
2022/08/23 08:26:14;;;;;;;7.90;2.80;;;27.10;58.40;;;;;;4992615;28;20913;-65
2022/08/23 08:28:41;;;;;;;4.60;2.40;;;27.50;55.50;;;;;;4993436;28;20505;-66
2022/08/23 08:31:08;;;;;;;2.70;2.07;;;27.80;54.40;;;;;;4993590;28;20835;-66
2022/08/23 08:33:37;;;;;;;3.77;2.27;;;28.30;53.10;;;;;;4993244;28;20439;-66
2022/08/23 08:36:04;;;;;;;3.80;1.80;;;28.50;50.80;;;;;;4993503;28;20479;-65
2022/08/23 08:38:31;;;;;;;3.97;2.30;;;28.90;51.20;;;;;;4993536;28;20454;-65
2022/08/23 08:41:07;;;;;;;2.90;2.00;;;28.90;50.00;;;;;;4993043;28;20470;-65
2022/08/23 08:43:47;;;;;;;5.67;2.30;;;29.20;49.90;;;;;;4993258;28;20451;-65
2022/08/23 08:46:24;;;;;;;3.87;2.10;;;29.50;45.40;;;;;;4993259;28;20831;-66
2022/08/23 08:48:57;;;;;;;4.50;2.57;;;29.70;46.10;;;;;;4993462;28;20862;-65
2022/08/23 08:51:36;;;;;;;3.77;2.43;;;30.00;44.60;;;;;;4993344;28;20443;-65
2022/08/23 08:54:07;;;;;;;6.00;2.70;;;30.30;43.00;;;;;;4993201;28;20451;-65
2022/08/23 08:56:37;;;;;;;3.60;2.47;;;30.60;44.60;;;;;;4993312;28;20450;-65
2022/08/23 08:59:06;;;;;;;6.23;2.37;;;30.90;43.90;;;;;;4992796;28;20538;-66
2022/08/23 09:01:35;;;;;;;6.03;2.47;;;31.20;42.80;;;;;;4993242;28;20497;-66
2022/08/23 09:04:05;;;;;;;4.23;2.83;;;31.50;40.00;;;;;;4993263;28;20479;-65
2022/08/23 09:06:42;;;;;;;4.77;2.77;;;31.70;39.50;;;;;;4993068;28;20921;-65
2022/08/23 09:09:20;;;;;;;5.50;1.80;;;32.00;40.70;;;;;;4993065;28;20435;-66
2022/08/23 09:11:57;;;;;;;3.03;1.70;;;32.10;35.90;;;;;;4993147;28;20443;-65
2022/08/23 09:14:46;;;;;;;5.37;2.10;;;32.20;34.60;;;;;;4993089;28;20802;-65
2022/08/23 09:17:21;;;;;;;3.57;1.70;;;32.40;34.30;;;;;;4993176;28;20443;-66
2022/08/23 09:19:52;;;;;;;3.57;2.10;;;32.50;31.60;;;;;;4996763;28;20446;-65
2022/08/23 09:22:28;;;;;;;4.43;1.93;;;32.60;31.60;;;;;;4996316;28;20438;-65
2022/08/23 09:24:57;;;;;;;5.33;2.27;;;32.70;32.10;;;;;;4996206;28;20494;-65
2022/08/23 09:27:24;;;;;;;3.37;1.83;;;32.70;31.50;;;;;;4996334;28;20530;-65
2022/08/23 09:29:55;;;;;;;3.70;1.77;;;32.90;30.80;;;;;;4996110;28;20447;-66
2022/08/23 09:32:32;;;;;;;3.23;1.53;;;32.90;30.80;;;;;;4996426;28;20505;-66
2022/08/23 09:35:16;;;;;;;3.07;1.70;;;33.00;29.50;;;;;;4996711;28;20985;-66
2022/08/23 09:37:53;;;;;;;4.87;1.70;;;33.30;30.00;;;;;;4996622;28;20439;-66
2022/08/23 09:40:30;;;;;;;3.67;1.93;;;33.40;29.50;;;;;;4996514;28;20777;-66
2022/08/23 09:43:10;;;;;;;3.80;2.37;;;33.40;27.10;;;;;;4996195;28;20457;-65
2022/08/23 09:45:39;;;;;;;5.90;2.23;;;33.30;29.60;;;;;;4996216;28;20482;-66
2022/08/23 09:48:11;;;;;;;4.97;2.00;;;33.50;29.80;;;;;;4996238;28;20498;-66
2022/08/23 09:50:46;;;;;;;4.10;2.07;;;33.40;29.00;;;;;;4996468;28;20436;-67
2022/08/23 09:53:16;;;;;;;3.93;1.90;;;33.30;27.70;;;;;;4996135;28;20444;-66
2022/08/23 09:55:48;;;;;;;4.30;2.03;;;33.20;28.30;;;;;;4996306;28;20455;-66
2022/08/23 09:58:19;;;;;;;4.30;1.80;;;33.30;29.60;;;;;;4995925;28;20479;-66
2022/08/23 10:01:01;;;;;;;5.77;1.70;;;33.20;28.80;;;;;;4995936;28;20518;-66
2022/08/23 10:03:29;;;;;;;3.27;1.70;;;33.30;28.40;;;;;;4995940;28;20854;-66
2022/08/23 10:06:00;;;;;;;4.57;1.67;;;33.30;29.30;;;;;;4995665;28;20522;-66
2022/08/23 10:08:31;;;;;;;4.43;1.93;;;33.20;29.30;;;;;;4995963;28;20435;-66
2022/08/23 10:11:06;;;;;;;3.60;1.60;;;33.20;27.80;;;;;;4995913;28;21021;-67
2022/08/23 10:13:33;;;;;;;2.90;1.47;;;33.10;27.70;;;;;;4995906;28;20447;-66
2022/08/23 10:16:11;;;;;;;3.50;1.83;;;33.00;27.80;;;;;;4995948;28;20475;-66
2022/08/23 10:18:50;;;;;;;3.37;1.47;;;32.90;28.70;;;;;;4996008;28;20498;-66
2022/08/23 10:21:24;;;;;;;3.90;1.60;;;32.90;28.10;;;;;;4995461;28;20478;-67
2022/08/23 10:24:06;;;;;;;2.87;1.70;;;32.80;29.70;;;;;;4995332;28;20510;-66
2022/08/23 10:26:36;;;;;;;2.80;1.90;;;32.80;28.50;;;;;;4995648;28;20895;-65
2022/08/23 10:32:03;;;;;;;3.20;1.57;;;32.60;28.70;;;;;;4995407;28;20798;-65
2022/08/23 10:35:00;;;;;;;3.63;1.90;;;32.50;28.70;;;;;;4995486;28;20440;-65
2022/08/23 10:37:42;;;;;;;3.60;2.10;;;32.30;29.10;;;;;;4994239;28;20451;-66
2022/08/23 10:40:17;;;;;;;2.70;1.77;;;32.20;29.20;;;;;;4995500;28;20631;-68
2022/08/23 10:42:55;;;;;;;3.07;1.67;;;32.00;27.40;;;;;;4995369;28;20574;-66
2022/08/23 10:45:27;;;;;;;4.97;2.13;;;31.80;29.00;;;;;;4995236;28;20487;-65
2022/08/23 10:48:13;;;;;;;3.00;1.40;;;31.50;28.80;;;;;;4995394;28;20902;-67
2022/08/23 10:50:44;;;;;;;4.70;2.37;;;31.30;30.40;;;;;;4995139;28;20443;-66
2022/08/23 10:53:17;;;;;;;3.37;1.70;;;31.30;31.30;;;;;;4995164;28;20534;-66
2022/08/23 10:56:01;;;;;;;3.23;1.70;;;31.30;30.80;;;;;;4994814;28;20479;-66
2022/08/23 10:58:37;;;;;;;3.80;1.73;;;31.30;30.40;;;;;;4994445;28;20475;-65
2022/08/23 11:01:08;;;;;;;2.53;1.30;;;31.30;30.90;;;;;;4994744;28;20446;-65
2022/08/23 11:03:42;;;;;;;3.10;1.60;;;31.30;31.30;;;;;;4994664;28;20471;-65
2022/08/23 11:06:44;;;;;;;4.10;1.80;;;31.30;31.10;;;;;;4994739;28;20483;-66
2022/08/23 11:09:44;;;;;;;3.43;1.70;;;31.30;30.00;;;;;;4994857;28;20443;-66
2022/08/23 11:12:20;;;;;;;4.10;1.70;;;31.30;30.60;;;;;;4974078;28;20441;-66
2022/08/23 11:14:58;;;;;;;4.53;2.00;;;31.30;31.40;;;;;;4974884;28;20998;-71
2022/08/23 11:17:28;;;;;;;4.57;1.57;;;31.30;31.20;;;;;;5013733;28;20497;-66
2022/08/23 11:19:58;;;;;;;4.03;1.90;;;31.20;31.70;;;;;;5008036;28;20443;-65
2022/08/23 11:22:28;;;;;;;5.27;1.90;;;31.20;31.00;;;;;;4994159;28;20486;-66
2022/08/23 11:25:02;;;;;;;3.30;2.13;;;31.20;31.50;;;;;;4993998;28;20506;-66
2022/08/23 11:27:33;;;;;;;4.10;1.80;;;31.20;32.20;;;;;;4994124;28;20459;-66
2022/08/23 11:30:38;;;;;;;2.63;1.40;;;31.10;32.50;;;;;;4994504;28;20579;-65
2022/08/23 11:33:16;;;;;;;3.80;1.60;;;30.90;33.40;;;;;;4994797;28;20486;-65
2022/08/23 11:35:47;;;;;;;3.63;2.07;;;31.00;32.90;;;;;;4994501;28;20511;-66
2022/08/23 11:38:17;;;;;;;2.20;1.33;;;31.00;33.80;;;;;;4993987;28;20428;-65
2022/08/23 11:41:11;;;;;;;3.20;1.50;;;31.00;31.90;;;;;;4993900;28;20436;-68
2022/08/23 11:43:40;;;;;;;2.83;1.47;;;31.00;32.70;;;;;;4994019;28;20427;-66
2022/08/23 11:46:41;;;;;;;2.80;1.47;;;31.10;32.10;;;;;;4994331;28;20479;-65
2022/08/23 11:49:35;;;;;;;3.93;1.87;;;31.10;31.20;;;;;;4994277;28;20564;-66
2022/08/23 11:52:15;;;;;;;3.80;1.77;;;31.00;30.80;;;;;;4994109;28;20478;-66
2022/08/23 11:54:55;;;;;;;4.33;1.47;;;31.00;30.90;;;;;;4994059;28;20522;-66
2022/08/23 11:57:36;;;;;;;2.63;1.40;;;30.90;30.70;;;;;;4994026;28;20439;-66
2022/08/23 12:00:15;;;;;;;3.10;1.57;;;31.00;29.50;;;;;;4994199;28;20435;-65
2022/08/23 12:03:00;;;;;;;3.13;1.40;;;31.00;30.60;;;;;;4993782;28;20526;-65
2022/08/23 12:05:43;;;;;;;3.47;1.30;;;30.90;29.60;;;;;;4993838;28;20979;-65
2022/08/23 12:08:49;;;;;;;2.27;1.37;;;30.90;27.70;;;;;;4993940;28;20922;-66
2022/08/23 12:11:17;;;;;;;4.20;1.50;;;30.80;29.40;;;;;;4993418;28;20412;-66
2022/08/23 12:13:50;;;;;;;4.73;1.67;;;30.80;28.70;;;;;;4993601;28;20478;-65
2022/08/23 12:16:36;;;;;;;2.80;1.67;;;30.90;28.80;;;;;;4994250;28;20844;-68
2022/08/23 12:19:08;;;;;;;2.40;1.33;;;30.90;29.20;;;;;;4993952;28;20431;-66
2022/08/23 12:21:44;;;;;;;3.33;1.30;;;30.90;29.30;;;;;;4993638;28;20439;-65
2022/08/23 12:24:28;;;;;;;2.57;1.40;;;30.90;29.20;;;;;;4993404;28;20451;-66
2022/08/23 12:27:06;;;;;;;3.00;1.20;;;30.90;28.60;;;;;;4993564;28;20863;-66
2022/08/23 12:29:48;;;;;;;4.30;1.30;;;30.80;29.40;;;;;;4993746;28;20439;-65
2022/08/23 12:32:22;;;;;;;4.60;1.50;;;30.80;29.10;;;;;;4993787;28;20929;-65
2022/08/23 12:35:03;;;;;;;2.37;1.07;;;30.80;28.40;;;;;;4993830;28;20918;-66
2022/08/23 12:37:37;;;;;;;2.37;1.30;;;30.80;29.40;;;;;;4993457;28;20420;-66
2022/08/23 12:40:08;;;;;;;3.13;1.90;;;30.80;28.40;;;;;;4993913;28;20474;-65
2022/08/23 12:42:39;;;;;;;4.70;1.57;;;30.80;28.30;;;;;;4993950;28;20916;-65
2022/08/23 12:45:12;;;;;;;5.30;2.00;;;30.80;27.90;;;;;;4993737;28;20438;-65
2022/08/23 12:47:42;;;;;;;2.73;1.33;;;30.80;28.70;;;;;;4993545;28;20519;-67
2022/08/23 12:50:20;;;;;;;5.00;1.30;;;30.80;28.60;;;;;;4993575;28;20431;-66
2022/08/23 12:52:58;;;;;;;3.63;1.70;;;30.70;29.90;;;;;;4994360;28;20462;-66
2022/08/23 12:55:30;;;;;;;4.07;1.70;;;30.60;30.00;;;;;;4997550;28;20450;-66
2022/08/23 12:57:58;;;;;;;4.70;2.53;;;30.60;29.50;;;;;;4997462;28;20463;-65
2022/08/23 13:00:30;;;;;;;3.17;1.43;;;30.50;29.20;;;;;;4997332;28;20446;-65
2022/08/23 13:03:01;;;;;;;3.07;1.77;;;30.50;29.80;;;;;;4997102;28;20470;-65
2022/08/23 13:05:38;;;;;;;4.30;1.73;;;30.50;29.70;;;;;;4997258;28;20443;-65
2022/08/23 13:08:09;;;;;;;3.40;1.47;;;30.50;30.00;;;;;;4997283;28;20474;-65
2022/08/23 13:10:38;;;;;;;2.60;1.40;;;30.30;30.70;;;;;;4996777;28;20475;-66
2022/08/23 13:13:05;;;;;;;3.27;1.60;;;30.10;27.80;;;;;;4996956;28;20522;-65
2022/08/23 13:15:46;;;;;;;6.23;1.67;;;29.80;28.50;;;;;;4997148;28;20446;-66
2022/08/23 13:18:28;;;;;;;4.27;1.50;;;29.70;29.00;;;;;;4993515;28;20467;-65
2022/08/23 13:21:24;;;;;;;3.87;1.60;;;29.70;30.00;;;;;;4998235;28;20439;-65